Time;durP1;ratioP1;P1;durP2;ratioP2;P2;SDS_P1;SDS_P2;PMS_P1;PMS_P2;Temp;Humidity;BMP_temperature;BMP_pressure;BME280_temperature;BME280_humidity;BME280_pressure;Samples;Min_cycle;Max_cycle;Signal;HPM_P1;HPM_P2
2023/10/12 00:02:27;;;;;;;36.03;25.63;;;13.60;94.40;;;;;;5112719;28;20181;-90
2023/10/12 00:04:59;;;;;;;32.50;25.97;;;13.50;94.30;;;;;;5112640;28;20193;-91
2023/10/12 00:07:33;;;;;;;38.23;25.03;;;13.20;93.80;;;;;;5114890;28;20159;-91
2023/10/12 00:10:21;;;;;;;31.70;26.67;;;13.10;94.00;;;;;;5113510;28;20185;-91
2023/10/12 00:12:47;;;;;;;38.90;29.77;;;12.90;93.80;;;;;;5114415;28;20208;-92
2023/10/12 00:17:47;;;;;;;31.60;26.83;;;13.00;93.90;;;;;;5114742;28;20190;-91
2023/10/12 00:20:21;;;;;;;35.87;26.17;;;13.00;93.80;;;;;;5113163;28;20170;-92
2023/10/12 00:22:47;;;;;;;34.50;24.60;;;13.00;93.70;;;;;;5113290;28;20184;-90
2023/10/12 00:25:16;;;;;;;32.77;27.50;;;12.80;93.50;;;;;;5113515;28;20305;-91
2023/10/12 00:27:42;;;;;;;33.27;26.63;;;12.80;93.40;;;;;;5117958;28;20174;-92
2023/10/12 00:30:09;;;;;;;30.30;27.03;;;12.80;93.60;;;;;;5118022;28;20173;-91
2023/10/12 00:32:35;;;;;;;37.10;26.07;;;12.80;93.60;;;;;;5117651;28;20227;-92
2023/10/12 00:35:01;;;;;;;43.27;27.97;;;12.70;93.40;;;;;;5117162;28;20289;-91
2023/10/12 00:37:27;;;;;;;31.00;27.03;;;12.70;93.50;;;;;;5117169;28;20287;-91
2023/10/12 00:42:19;;;;;;;37.83;26.30;;;12.70;93.50;;;;;;5118830;28;20177;-91
2023/10/12 00:44:52;;;;;;;29.00;25.93;;;12.80;93.50;;;;;;5117218;28;20196;-91
2023/10/12 00:50:11;;;;;;;48.93;44.83;;;12.50;93.30;;;;;;5118437;28;20231;-91
2023/10/12 00:52:56;;;;;;;51.37;47.00;;;12.50;93.20;;;;;;5117099;28;20174;-91
2023/10/12 00:55:35;;;;;;;50.43;46.17;;;12.60;93.40;;;;;;5116731;28;20198;-91
2023/10/12 00:58:05;;;;;;;49.40;44.60;;;12.40;93.20;;;;;;5117648;28;20208;-91
2023/10/12 01:00:35;;;;;;;48.83;44.27;;;12.40;93.30;;;;;;5116887;28;20601;-93
2023/10/12 01:03:07;;;;;;;47.97;43.33;;;12.30;93.10;;;;;;5116759;28;20158;-91
2023/10/12 01:05:36;;;;;;;45.60;41.27;;;12.30;93.10;;;;;;5118081;28;20190;-91
2023/10/12 01:08:03;;;;;;;46.33;42.20;;;12.30;93.10;;;;;;5116874;28;20182;-91
2023/10/12 01:10:31;;;;;;;48.40;43.90;;;12.40;93.00;;;;;;5116222;28;20174;-92
2023/10/12 01:12:57;;;;;;;49.20;43.97;;;12.30;93.00;;;;;;5116403;28;20170;-91
2023/10/12 01:15:30;;;;;;;51.37;46.27;;;12.40;93.00;;;;;;5116265;28;20194;-91
2023/10/12 01:17:56;;;;;;;30.00;23.63;;;12.40;92.80;;;;;;5115965;28;20197;-91
2023/10/12 01:20:26;;;;;;;29.73;22.63;;;12.30;92.80;;;;;;5116163;28;20166;-91
2023/10/12 01:22:52;;;;;;;45.13;40.50;;;12.30;92.90;;;;;;5116088;28;20205;-91
2023/10/12 01:25:33;;;;;;;45.30;41.03;;;12.40;93.00;;;;;;5116354;28;20217;-91
2023/10/12 01:28:05;;;;;;;32.07;23.07;;;12.40;93.00;;;;;;5117064;28;20211;-91
2023/10/12 01:30:35;;;;;;;32.97;22.17;;;12.50;93.10;;;;;;5115866;28;20158;-91
2023/10/12 01:33:02;;;;;;;26.70;23.30;;;12.50;93.10;;;;;;5115654;28;20181;-92
2023/10/12 01:35:37;;;;;;;25.77;22.70;;;12.60;93.10;;;;;;5115609;28;20193;-91
2023/10/12 01:38:08;;;;;;;27.90;24.00;;;12.50;93.10;;;;;;5115125;28;20216;-92
2023/10/12 01:43:17;;;;;;;32.13;24.37;;;12.60;93.20;;;;;;5116900;28;20146;-91
2023/10/12 01:45:43;;;;;;;29.53;25.70;;;12.50;93.00;;;;;;5115629;28;20186;-91
2023/10/12 01:48:16;;;;;;;28.87;24.47;;;12.40;93.10;;;;;;5115533;28;20181;-91
2023/10/12 01:50:42;;;;;;;30.20;24.63;;;12.40;93.20;;;;;;5115565;28;20162;-91
2023/10/12 01:55:47;;;;;;;29.43;24.10;;;12.30;93.10;;;;;;5116521;28;20220;-92
2023/10/12 01:58:17;;;;;;;32.90;24.53;;;12.30;93.20;;;;;;5115109;28;20201;-91
2023/10/12 02:00:48;;;;;;;27.13;24.43;;;12.30;93.30;;;;;;5116759;28;20259;-92
2023/10/12 02:06:02;;;;;;;26.00;23.07;;;12.30;93.20;;;;;;5116718;28;20200;-90
2023/10/12 02:11:09;;;;;;;26.20;22.87;;;12.30;93.20;;;;;;5116782;28;20166;-91
2023/10/12 02:13:35;;;;;;;36.60;24.00;;;12.30;93.20;;;;;;5114824;28;20176;-91
2023/10/12 02:16:06;;;;;;;24.57;22.00;;;12.30;93.20;;;;;;5114900;28;20672;-91
2023/10/12 02:18:33;;;;;;;30.13;22.60;;;12.30;93.20;;;;;;5114797;28;20299;-91
2023/10/12 02:21:09;;;;;;;25.73;23.03;;;12.20;93.20;;;;;;5114966;28;20166;-91
2023/10/12 02:23:38;;;;;;;26.50;22.57;;;12.20;93.20;;;;;;5116078;28;20161;-91
2023/10/12 02:26:12;;;;;;;29.53;22.97;;;12.20;93.20;;;;;;5114561;28;20194;-91
2023/10/12 02:28:38;;;;;;;27.37;22.47;;;12.30;93.20;;;;;;5114541;28;20169;-90
2023/10/12 02:31:04;;;;;;;31.27;23.20;;;12.20;93.10;;;;;;5115751;28;20214;-91
2023/10/12 02:33:35;;;;;;;27.80;22.70;;;12.20;93.00;;;;;;5114489;28;20649;-91
2023/10/12 02:36:06;;;;;;;28.30;22.93;;;12.20;93.00;;;;;;5114335;28;20285;-91
2023/10/12 02:38:34;;;;;;;25.53;22.93;;;12.30;93.10;;;;;;5115567;28;20185;-90
2023/10/12 02:40:59;;;;;;;24.80;22.33;;;12.20;93.10;;;;;;5114495;28;20675;-90
2023/10/12 02:43:28;;;;;;;29.33;22.33;;;12.20;93.00;;;;;;5114271;28;20166;-90
2023/10/12 02:45:59;;;;;;;24.80;20.57;;;12.20;93.00;;;;;;5114083;28;20566;-90
2023/10/12 02:48:25;;;;;;;27.23;21.83;;;12.20;93.10;;;;;;5113848;28;20184;-90
2023/10/12 02:50:57;;;;;;;26.20;20.63;;;12.20;93.20;;;;;;5114013;28;20269;-90
2023/10/12 02:53:30;;;;;;;31.10;22.07;;;12.20;93.20;;;;;;5114127;28;20163;-92
2023/10/12 02:56:01;;;;;;;41.43;37.60;;;12.20;93.20;;;;;;5114551;28;20574;-92
2023/10/12 02:58:32;;;;;;;39.70;35.70;;;12.20;93.30;;;;;;5114027;28;20194;-91
2023/10/12 03:01:14;;;;;;;42.53;38.33;;;12.20;93.30;;;;;;5114275;28;20189;-90
2023/10/12 03:03:47;;;;;;;41.63;37.80;;;12.20;93.30;;;;;;5114008;28;20194;-90
2023/10/12 03:06:15;;;;;;;40.00;36.03;;;12.20;93.30;;;;;;5113964;28;20197;-90
2023/10/12 03:11:28;;;;;;;41.20;37.40;;;12.20;93.40;;;;;;5115361;28;20185;-90
2023/10/12 03:14:00;;;;;;;42.73;38.43;;;12.20;93.40;;;;;;5114748;28;20180;-91
2023/10/12 03:16:33;;;;;;;42.27;37.80;;;12.20;93.40;;;;;;5113789;28;20693;-90
2023/10/12 03:19:00;;;;;;;43.97;39.47;;;12.30;93.50;;;;;;5113484;28;20186;-91
2023/10/12 03:21:33;;;;;;;35.67;24.10;;;12.30;93.50;;;;;;5114587;28;20173;-90
2023/10/12 03:24:02;;;;;;;25.60;22.90;;;12.30;93.50;;;;;;5113411;28;20253;-90
2023/10/12 03:26:29;;;;;;;29.77;25.30;;;12.20;93.60;;;;;;5113442;28;20173;-90
2023/10/12 03:29:18;;;;;;;45.77;41.17;;;12.30;93.70;;;;;;5113224;28;20170;-90
2023/10/12 03:37:01;;;;;;;29.20;24.33;;;12.20;93.70;;;;;;5114963;28;20169;-90
2023/10/12 03:39:27;;;;;;;42.40;38.50;;;12.20;93.80;;;;;;5113036;28;20252;-90
2023/10/12 03:52:34;;;;;;;26.00;23.30;;;12.20;93.70;;;;;;5114195;28;20155;-91
2023/10/12 03:55:16;;;;;;;27.93;23.13;;;12.30;93.70;;;;;;5112803;28;20193;-90
2023/10/12 03:57:50;;;;;;;30.07;23.33;;;12.20;93.70;;;;;;5114990;28;20185;-91
2023/10/12 04:00:25;;;;;;;32.13;23.60;;;12.30;93.80;;;;;;5112477;28;20163;-91
2023/10/12 04:05:21;;;;;;;33.50;23.87;;;12.30;93.80;;;;;;5114247;28;20672;-90
2023/10/12 04:13:09;;;;;;;26.93;24.07;;;12.30;93.80;;;;;;5114086;28;20213;-90
2023/10/12 04:18:27;;;;;;;31.30;22.73;;;12.20;93.80;;;;;;5113749;28;20196;-90
2023/10/12 04:20:56;;;;;;;25.03;22.20;;;12.30;93.80;;;;;;5112476;28;20223;-90
2023/10/12 04:28:52;;;;;;;28.67;23.20;;;12.20;93.90;;;;;;5113875;28;20594;-91
2023/10/12 04:31:21;;;;;;;24.73;21.37;;;12.30;93.90;;;;;;5112533;28;20201;-90
2023/10/12 04:36:33;;;;;;;35.00;23.00;;;12.20;93.90;;;;;;5113591;28;20581;-90
2023/10/12 04:47:05;;;;;;;24.60;22.50;;;12.20;94.00;;;;;;5114194;28;20151;-91
2023/10/12 04:57:32;;;;;;;33.33;22.63;;;12.10;94.00;;;;;;5113542;28;20577;-90
2023/10/12 05:07:55;;;;;;;25.47;22.50;;;12.10;93.80;;;;;;5113754;28;20174;-90
2023/10/12 05:13:05;;;;;;;43.43;39.27;;;12.10;93.80;;;;;;5116272;28;20629;-90
2023/10/12 05:15:54;;;;;;;43.73;39.83;;;12.10;93.70;;;;;;5116117;28;20197;-90
2023/10/12 05:18:21;;;;;;;45.17;40.83;;;12.00;93.60;;;;;;5115770;28;20199;-89
2023/10/12 05:20:47;;;;;;;45.13;39.93;;;12.00;93.50;;;;;;5115859;28;20243;-90
2023/10/12 05:23:13;;;;;;;42.80;39.47;;;12.00;93.50;;;;;;5117599;28;20625;-92
2023/10/12 05:25:53;;;;;;;45.23;41.30;;;12.00;93.50;;;;;;5117029;28;20237;-89
2023/10/12 05:28:26;;;;;;;41.60;37.73;;;12.00;93.30;;;;;;5118032;28;20505;-91
2023/10/12 05:30:59;;;;;;;44.47;39.80;;;12.00;93.30;;;;;;5115521;28;20166;-91
2023/10/12 05:34:00;;;;;;;42.87;38.87;;;11.90;93.20;;;;;;5116830;28;20146;-91
2023/10/12 05:36:15;;;;;;;44.33;40.70;;;12.00;93.30;;;;;;5116700;27;20197;-91
2023/10/12 05:38:49;;;;;;;45.97;42.13;;;12.00;93.30;;;;;;5115382;28;20262;-90
2023/10/12 05:41:33;;;;;;;24.60;22.03;;;12.00;93.30;;;;;;5115921;28;20299;-90
2023/10/12 05:43:59;;;;;;;29.00;22.53;;;12.00;93.20;;;;;;5116281;28;20257;-91
2023/10/12 05:46:33;;;;;;;40.53;36.70;;;12.00;93.20;;;;;;5115296;28;20514;-90
2023/10/12 05:48:59;;;;;;;42.47;38.23;;;12.00;93.20;;;;;;5116640;28;20634;-90
2023/10/12 05:51:24;;;;;;;24.67;22.00;;;12.00;93.10;;;;;;5116488;28;20209;-90
2023/10/12 05:54:03;;;;;;;24.40;21.87;;;12.00;93.00;;;;;;5115157;28;20676;-90
2023/10/12 05:56:34;;;;;;;23.07;20.73;;;12.00;93.10;;;;;;5115087;28;20672;-90
2023/10/12 05:59:00;;;;;;;26.77;22.20;;;12.00;93.10;;;;;;5116323;28;20196;-91
2023/10/12 06:01:36;;;;;;;26.90;22.37;;;12.00;93.10;;;;;;5114978;28;20174;-90
2023/10/12 06:04:08;;;;;;;28.00;22.40;;;12.00;93.00;;;;;;5114827;28;20577;-90
2023/10/12 06:06:35;;;;;;;28.37;23.00;;;12.00;93.00;;;;;;5116140;28;20226;-90
2023/10/12 06:09:05;;;;;;;24.70;22.00;;;12.00;92.90;;;;;;5114824;28;20219;-90
2023/10/12 06:11:30;;;;;;;26.63;21.47;;;12.00;92.90;;;;;;5114754;28;20550;-90
2023/10/12 06:13:59;;;;;;;24.23;21.00;;;12.00;92.90;;;;;;5115963;28;20174;-90
2023/10/12 06:16:25;;;;;;;31.60;21.37;;;12.00;92.90;;;;;;5115021;28;20267;-90
2023/10/12 06:18:54;;;;;;;26.80;22.77;;;12.00;93.00;;;;;;5116172;28;20281;-90
2023/10/12 06:21:19;;;;;;;26.50;22.47;;;12.00;92.90;;;;;;5115849;28;20226;-90
2023/10/12 06:23:49;;;;;;;26.10;23.30;;;12.00;93.00;;;;;;5114039;28;20190;-90
2023/10/12 06:26:28;;;;;;;27.97;22.33;;;11.90;93.00;;;;;;5114499;28;20174;-90
2023/10/12 06:28:54;;;;;;;24.63;22.10;;;11.90;93.00;;;;;;5114550;28;20170;-90
2023/10/12 06:31:21;;;;;;;27.03;22.73;;;11.90;93.00;;;;;;5115655;28;20227;-90
2023/10/12 06:33:48;;;;;;;28.40;23.23;;;11.90;93.00;;;;;;5114734;28;20185;-90
2023/10/12 06:36:22;;;;;;;29.97;24.23;;;12.00;93.00;;;;;;5114299;28;20265;-89
2023/10/12 06:39:02;;;;;;;24.30;21.80;;;12.00;93.00;;;;;;5115435;27;20182;-89
2023/10/12 06:41:58;;;;;;;25.47;22.27;;;12.00;92.90;;;;;;5115466;28;20147;-89
2023/10/12 06:46:48;;;;;;;24.90;22.33;;;12.00;92.70;;;;;;5116707;28;20189;-91
2023/10/12 06:49:29;;;;;;;30.13;23.77;;;12.00;92.70;;;;;;5115240;28;20193;-91
2023/10/12 06:52:04;;;;;;;25.20;22.40;;;12.00;92.70;;;;;;5113978;28;20174;-89
2023/10/12 06:54:39;;;;;;;27.73;22.47;;;12.00;92.60;;;;;;5113959;28;20288;-89
2023/10/12 07:02:29;;;;;;;26.73;22.87;;;12.10;92.50;;;;;;5115362;28;20249;-89
2023/10/12 07:04:57;;;;;;;25.67;22.37;;;12.10;92.40;;;;;;5113613;28;20194;-89
2023/10/12 07:07:36;;;;;;;25.57;22.37;;;12.10;92.20;;;;;;5113753;28;20265;-91
2023/10/12 07:12:49;;;;;;;25.33;22.10;;;12.10;92.10;;;;;;5115170;28;20203;-89
2023/10/12 07:15:21;;;;;;;25.90;22.73;;;12.10;91.90;;;;;;5113486;28;20194;-89
2023/10/12 07:17:50;;;;;;;25.43;21.53;;;12.10;91.90;;;;;;5113363;28;20177;-89
2023/10/12 07:20:40;;;;;;;38.90;35.07;;;12.10;91.90;;;;;;5113477;28;20177;-89
2023/10/12 07:23:14;;;;;;;37.33;34.07;;;12.20;91.90;;;;;;5113690;28;20173;-91
2023/10/12 07:25:43;;;;;;;37.83;34.43;;;12.20;91.80;;;;;;5113764;28;20204;-90
2023/10/12 07:28:16;;;;;;;39.63;35.50;;;12.20;91.70;;;;;;5114923;28;20257;-90
2023/10/12 07:31:15;;;;;;;39.30;35.63;;;12.30;91.80;;;;;;5114379;28;20499;-90
2023/10/12 07:33:32;;;;;;;39.67;35.57;;;12.30;91.70;;;;;;5114434;28;20610;-90
2023/10/12 07:36:17;;;;;;;39.53;35.50;;;12.30;91.70;;;;;;5113919;28;20204;-91
2023/10/12 07:38:45;;;;;;;38.70;35.13;;;12.40;91.60;;;;;;5113115;28;20193;-90
2023/10/12 07:41:10;;;;;;;36.40;32.97;;;12.50;91.50;;;;;;5113076;28;20178;-90
2023/10/12 07:43:38;;;;;;;40.67;37.20;;;12.60;91.20;;;;;;5113580;28;20174;-90
2023/10/12 07:46:14;;;;;;;44.97;39.93;;;12.70;91.00;;;;;;5113111;28;20194;-90
2023/10/12 07:48:42;;;;;;;26.60;21.13;;;12.70;91.00;;;;;;5114303;28;20154;-90
2023/10/12 07:51:30;;;;;;;23.57;21.37;;;12.80;90.70;;;;;;5114324;28;20174;-90
2023/10/12 07:54:00;;;;;;;42.60;38.33;;;12.80;90.40;;;;;;5112844;28;20544;-89
2023/10/12 07:56:31;;;;;;;43.70;39.07;;;12.80;90.50;;;;;;5112548;28;20567;-89
2023/10/12 07:58:57;;;;;;;26.93;22.33;;;12.80;90.10;;;;;;5113925;28;20201;-90
2023/10/12 08:03:59;;;;;;;38.83;35.17;;;12.90;90.00;;;;;;5114202;28;20154;-89
2023/10/12 08:11:45;;;;;;;28.47;23.37;;;13.00;89.80;;;;;;5114534;28;20203;-90
2023/10/12 08:14:39;;;;;;;25.33;21.50;;;13.00;88.90;;;;;;5112554;28;20292;-90
2023/10/12 08:19:55;;;;;;;24.03;21.57;;;13.20;87.90;;;;;;5113970;28;20285;-90
2023/10/12 08:22:29;;;;;;;28.37;23.03;;;13.30;87.30;;;;;;5112690;28;20170;-90
2023/10/12 08:24:58;;;;;;;25.10;22.47;;;13.50;88.00;;;;;;5112964;28;20681;-90
2023/10/12 08:27:25;;;;;;;24.87;22.23;;;13.60;87.50;;;;;;5112457;28;20169;-90
2023/10/12 08:37:26;;;;;;;26.87;24.10;;;13.90;85.80;;;;;;5114103;28;20166;-90
2023/10/12 08:40:07;;;;;;;28.80;24.60;;;14.00;86.40;;;;;;5112271;28;20262;-90
2023/10/12 08:45:17;;;;;;;30.43;23.40;;;13.90;86.00;;;;;;5114058;28;20194;-90
2023/10/12 08:47:49;;;;;;;25.30;23.23;;;13.90;85.40;;;;;;5114688;28;20169;-90
2023/10/12 08:52:52;;;;;;;30.87;25.20;;;13.80;85.60;;;;;;5118148;28;20271;-90
2023/10/12 08:55:20;;;;;;;29.77;24.10;;;13.80;85.00;;;;;;5116816;28;20228;-91
2023/10/12 08:58:14;;;;;;;26.27;23.43;;;13.70;83.60;;;;;;5116723;28;20193;-89
2023/10/12 09:00:51;;;;;;;28.60;23.07;;;13.80;84.10;;;;;;5116400;28;20605;-90
2023/10/12 09:03:28;;;;;;;25.87;23.20;;;13.80;84.10;;;;;;5116193;28;20254;-89
2023/10/12 09:06:00;;;;;;;27.80;25.03;;;13.80;83.60;;;;;;5116039;28;20214;-90
2023/10/12 09:11:02;;;;;;;28.90;23.90;;;13.90;83.70;;;;;;5117753;28;20242;-89
2023/10/12 09:13:33;;;;;;;26.27;23.67;;;14.00;83.00;;;;;;5117153;28;20158;-90
2023/10/12 09:16:02;;;;;;;28.10;23.00;;;14.00;83.00;;;;;;5117369;28;20680;-89
2023/10/12 09:18:30;;;;;;;28.33;23.00;;;13.90;81.40;;;;;;5115812;28;20604;-89
2023/10/12 09:23:29;;;;;;;25.00;22.53;;;13.90;83.10;;;;;;5117177;28;20170;-89
2023/10/12 09:31:13;;;;;;;24.57;22.13;;;14.00;84.30;;;;;;5117474;28;20158;-90
2023/10/12 09:33:54;;;;;;;26.53;21.03;;;14.00;82.70;;;;;;5115492;28;20163;-89
2023/10/12 09:36:21;;;;;;;25.07;21.70;;;14.10;83.40;;;;;;5115737;28;20621;-89
2023/10/12 09:38:46;;;;;;;24.75;22.40;;;14.30;83.50;;;;;;5116656;28;20205;-89
2023/10/12 09:41:14;;;;;;;24.13;21.45;;;14.40;83.70;;;;;;5115378;28;20182;-89
2023/10/12 09:43:44;;;;;;;29.60;22.52;;;14.60;83.80;;;;;;5116602;28;20583;-89
2023/10/12 09:46:14;;;;;;;23.92;21.42;;;14.60;81.80;;;;;;5115205;28;20726;-89
2023/10/12 09:48:43;;;;;;;24.98;23.00;;;14.80;82.40;;;;;;5115229;28;20267;-89
2023/10/12 09:51:18;;;;;;;25.10;22.33;;;14.80;80.70;;;;;;5115336;28;20692;-89
2023/10/12 09:53:58;;;;;;;28.67;22.70;;;14.70;80.80;;;;;;5116398;27;20219;-89
2023/10/12 09:56:28;;;;;;;24.33;21.97;;;14.80;81.00;;;;;;5116245;28;20182;-89
2023/10/12 09:59:08;;;;;;;25.10;22.60;;;14.80;81.70;;;;;;5114591;28;20193;-90
2023/10/12 10:09:54;;;;;;;25.15;21.77;;;14.60;77.90;;;;;;5116652;28;20157;-90
2023/10/12 10:12:23;;;;;;;36.17;32.55;;;14.60;77.90;;;;;;5115878;27;20150;-90
2023/10/12 10:15:00;;;;;;;35.45;31.73;;;14.80;78.10;;;;;;5114538;28;20225;-90
2023/10/12 10:17:36;;;;;;;35.13;31.60;;;14.80;78.10;;;;;;5114724;28;20170;-89
2023/10/12 10:20:34;;;;;;;36.47;33.15;;;15.00;78.50;;;;;;5115765;28;20549;-90
2023/10/12 10:22:59;;;;;;;35.63;32.33;;;15.00;76.40;;;;;;5115557;28;20205;-89
2023/10/12 10:25:34;;;;;;;37.53;34.35;;;15.20;77.50;;;;;;5114360;28;20715;-90
2023/10/12 10:28:07;;;;;;;36.45;33.58;;;15.10;75.80;;;;;;5116063;28;20195;-90
2023/10/12 10:30:41;;;;;;;36.95;33.75;;;15.20;76.40;;;;;;5114785;28;20155;-90
2023/10/12 10:33:17;;;;;;;39.40;35.70;;;15.30;77.70;;;;;;5115277;28;20158;-90
2023/10/12 10:35:58;;;;;;;27.83;22.58;;;15.10;75.50;;;;;;5115866;28;20197;-90
2023/10/12 10:38:30;;;;;;;24.75;22.30;;;15.10;76.80;;;;;;5115302;28;20254;-89
2023/10/12 10:41:05;;;;;;;37.00;33.85;;;15.20;77.90;;;;;;5114202;28;20166;-89
2023/10/12 10:43:31;;;;;;;40.72;36.85;;;15.30;78.20;;;;;;5114279;28;20170;-90
2023/10/12 10:45:57;;;;;;;36.83;33.00;;;15.30;76.70;;;;;;5114076;28;20190;-89
2023/10/12 10:48:27;;;;;;;24.38;22.05;;;15.30;77.90;;;;;;5115221;28;20269;-89
2023/10/12 10:50:53;;;;;;;26.17;23.40;;;15.40;77.90;;;;;;5113936;28;20186;-89
2023/10/12 10:53:20;;;;;;;27.67;21.92;;;15.20;75.40;;;;;;5115213;28;20170;-89
2023/10/12 10:55:47;;;;;;;25.20;22.38;;;15.20;76.00;;;;;;5114479;28;20198;-89
2023/10/12 10:58:17;;;;;;;26.17;22.38;;;15.20;75.00;;;;;;5113771;28;20194;-89
2023/10/12 11:00:46;;;;;;;23.05;20.15;;;15.30;76.80;;;;;;5113824;28;20170;-90
2023/10/12 11:03:16;;;;;;;25.30;22.65;;;15.50;77.60;;;;;;5114235;28;20174;-90
2023/10/12 11:05:44;;;;;;;25.55;22.85;;;15.20;74.60;;;;;;5113607;28;20201;-89
2023/10/12 11:08:19;;;;;;;23.25;20.85;;;15.20;76.10;;;;;;5113718;28;20657;-89
2023/10/12 11:13:33;;;;;;;23.27;21.10;;;15.10;77.60;;;;;;5115228;28;20161;-90
2023/10/12 11:16:20;;;;;;;23.42;21.10;;;15.10;75.70;;;;;;5114896;27;20186;-89
2023/10/12 11:18:47;;;;;;;24.42;19.98;;;14.80;76.20;;;;;;5113618;28;20217;-90
2023/10/12 11:21:14;;;;;;;23.30;21.20;;;14.80;77.90;;;;;;5114565;28;20181;-90
2023/10/12 11:23:44;;;;;;;22.73;20.42;;;14.80;77.60;;;;;;5114752;28;20257;-89
2023/10/12 11:26:19;;;;;;;22.38;19.98;;;14.90;78.20;;;;;;5113554;28;20198;-90
2023/10/12 11:28:46;;;;;;;30.95;20.52;;;14.90;79.20;;;;;;5113582;28;20177;-89
2023/10/12 11:31:30;;;;;;;23.02;20.67;;;14.80;79.00;;;;;;5114282;28;20178;-89
2023/10/12 11:33:56;;;;;;;24.05;19.73;;;14.60;79.10;;;;;;5114662;28;20629;-89
2023/10/12 11:36:25;;;;;;;22.90;20.50;;;14.70;79.50;;;;;;5114481;28;20666;-90
2023/10/12 11:38:59;;;;;;;26.40;20.10;;;14.60;78.70;;;;;;5114540;28;20264;-89
2023/10/12 11:41:25;;;;;;;23.55;21.25;;;14.70;79.60;;;;;;5114445;28;20166;-89
2023/10/12 11:43:57;;;;;;;21.70;19.80;;;14.60;78.50;;;;;;5114376;28;20176;-89
2023/10/12 11:46:24;;;;;;;23.55;19.17;;;14.70;79.40;;;;;;5113089;28;20170;-89
2023/10/12 11:49:04;;;;;;;25.58;19.35;;;14.80;80.10;;;;;;5113027;28;20278;-88
2023/10/12 11:51:30;;;;;;;23.88;19.85;;;14.80;80.00;;;;;;5114309;28;20170;-88
2023/10/12 11:53:56;;;;;;;21.92;19.70;;;14.80;78.60;;;;;;5114260;28;20169;-88
2023/10/12 11:56:25;;;;;;;22.17;20.08;;;14.80;78.50;;;;;;5113006;28;20193;-90
2023/10/12 11:58:57;;;;;;;22.25;20.25;;;14.80;77.90;;;;;;5113324;28;20745;-90
2023/10/12 12:01:27;;;;;;;26.98;20.15;;;14.80;78.10;;;;;;5113395;28;20648;-89
2023/10/12 12:03:53;;;;;;;22.20;20.00;;;14.90;78.50;;;;;;5113673;28;20562;-89
2023/10/12 12:06:20;;;;;;;21.52;19.35;;;14.90;78.40;;;;;;5114294;28;20169;-87
2023/10/12 12:08:47;;;;;;;25.40;21.00;;;15.00;79.10;;;;;;5114181;28;20174;-87
2023/10/12 12:11:19;;;;;;;22.60;20.02;;;14.90;78.10;;;;;;5112890;28;20180;-87
2023/10/12 12:13:48;;;;;;;23.55;20.25;;;14.90;78.40;;;;;;5114240;28;20294;-88
2023/10/12 12:16:20;;;;;;;22.20;20.00;;;15.00;78.40;;;;;;5112444;28;20228;-88
2023/10/12 12:18:52;;;;;;;22.50;20.23;;;15.40;79.70;;;;;;5114142;28;20238;-88
2023/10/12 12:21:29;;;;;;;22.67;20.35;;;15.60;78.40;;;;;;5112300;28;20174;-89
2023/10/12 12:23:56;;;;;;;28.65;20.67;;;15.70;77.90;;;;;;5114108;28;20223;-88
2023/10/12 12:26:24;;;;;;;23.40;20.73;;;15.70;77.60;;;;;;5113981;28;20177;-89
2023/10/12 12:29:02;;;;;;;26.63;23.95;;;15.80;76.70;;;;;;5113791;28;20646;-89
2023/10/12 12:31:32;;;;;;;28.27;23.33;;;15.70;73.20;;;;;;5112763;28;20716;-88
2023/10/12 12:33:57;;;;;;;25.73;23.35;;;15.60;74.50;;;;;;5112559;28;20268;-89
2023/10/12 12:36:23;;;;;;;28.17;24.48;;;15.70;74.70;;;;;;5112710;28;20319;-88
2023/10/12 12:38:57;;;;;;;26.75;24.08;;;15.90;73.40;;;;;;5113826;28;20197;-89
2023/10/12 12:41:23;;;;;;;25.83;23.05;;;15.80;70.00;;;;;;5112617;28;20628;-88
2023/10/12 12:43:50;;;;;;;26.58;23.77;;;15.80;71.50;;;;;;5112601;28;20659;-90
2023/10/12 12:46:17;;;;;;;27.60;24.88;;;15.60;70.30;;;;;;5112590;28;20170;-89
2023/10/12 12:48:45;;;;;;;26.55;24.13;;;15.90;71.20;;;;;;5112335;28;20170;-90
2023/10/12 12:51:15;;;;;;;27.90;25.30;;;16.30;71.60;;;;;;5113489;28;20174;-91
2023/10/12 12:53:42;;;;;;;27.48;24.35;;;16.20;68.50;;;;;;5113630;28;20223;-89
2023/10/12 12:56:10;;;;;;;26.60;23.77;;;16.20;68.70;;;;;;5112220;28;20315;-89
2023/10/12 12:58:36;;;;;;;25.45;23.08;;;16.60;70.10;;;;;;5113484;28;20204;-91
2023/10/12 13:01:03;;;;;;;27.73;25.30;;;16.90;70.00;;;;;;5112452;28;20638;-92
2023/10/12 13:03:29;;;;;;;28.08;25.55;;;16.90;66.50;;;;;;5113559;28;20245;-92
2023/10/12 13:05:54;;;;;;;29.05;25.08;;;16.90;67.30;;;;;;5112419;28;20190;-92
2023/10/12 13:08:20;;;;;;;25.48;23.13;;;17.10;68.80;;;;;;5112300;28;20185;-92
2023/10/12 13:10:45;;;;;;;27.73;25.30;;;17.40;70.40;;;;;;5112441;28;20637;-92
2023/10/12 13:13:12;;;;;;;27.00;24.20;;;17.20;67.10;;;;;;5113715;28;20174;-92
2023/10/12 13:15:42;;;;;;;26.70;24.52;;;17.30;68.20;;;;;;5112087;28;20194;-91
2023/10/12 13:18:14;;;;;;;26.83;24.42;;;17.20;64.20;;;;;;5112382;28;20174;-92
2023/10/12 13:20:46;;;;;;;27.58;24.70;;;17.30;66.80;;;;;;5112183;28;20170;-91
2023/10/12 13:23:17;;;;;;;28.25;25.80;;;17.50;67.20;;;;;;5112063;28;20649;-91
2023/10/12 13:25:42;;;;;;;28.88;25.88;;;17.50;66.60;;;;;;5112093;28;20198;-91
2023/10/12 13:28:10;;;;;;;28.80;26.10;;;17.20;64.50;;;;;;5112147;28;20223;-91
2023/10/12 13:30:36;;;;;;;29.77;26.83;;;17.20;67.40;;;;;;5113472;28;20215;-91
2023/10/12 13:33:05;;;;;;;30.38;27.23;;;17.20;68.00;;;;;;5111923;28;20598;-91
2023/10/12 13:35:41;;;;;;;28.10;25.08;;;16.80;68.20;;;;;;5115191;28;20677;-91
2023/10/12 13:38:11;;;;;;;26.80;24.25;;;16.80;68.30;;;;;;5117141;28;20149;-92
2023/10/12 13:40:42;;;;;;;26.63;24.20;;;17.00;67.20;;;;;;5116728;28;20173;-91
2023/10/12 13:43:14;;;;;;;26.52;24.30;;;17.00;67.90;;;;;;5115624;28;20630;-91
2023/10/12 13:45:43;;;;;;;41.78;37.78;;;17.00;68.50;;;;;;5116486;28;20198;-91
2023/10/12 13:48:10;;;;;;;40.45;36.83;;;17.00;66.00;;;;;;5115365;28;20199;-91
2023/10/12 13:50:37;;;;;;;39.25;36.00;;;17.10;64.60;;;;;;5115479;28;20180;-91
2023/10/12 13:53:05;;;;;;;39.78;36.40;;;17.20;68.00;;;;;;5116329;28;20542;-91
2023/10/12 13:55:32;;;;;;;39.42;36.05;;;16.90;67.40;;;;;;5114959;28;20198;-91
2023/10/12 13:57:57;;;;;;;40.40;36.38;;;16.70;64.40;;;;;;5115410;28;20173;-92
2023/10/12 14:00:27;;;;;;;39.90;36.17;;;16.70;67.70;;;;;;5115441;28;20659;-92
2023/10/12 14:02:57;;;;;;;42.45;39.03;;;16.80;65.50;;;;;;5115309;28;20608;-91
2023/10/12 14:05:29;;;;;;;41.85;37.92;;;16.90;67.10;;;;;;5114979;28;20190;-91
2023/10/12 14:07:58;;;;;;;26.40;23.83;;;16.60;67.20;;;;;;5115394;28;20224;-91
2023/10/12 14:10:24;;;;;;;26.33;23.58;;;16.50;67.30;;;;;;5116255;28;20545;-91
2023/10/12 14:12:53;;;;;;;39.15;35.35;;;16.70;69.10;;;;;;5114872;28;20170;-90
2023/10/12 14:15:28;;;;;;;40.33;37.25;;;16.30;67.20;;;;;;5115107;28;20198;-89
2023/10/12 14:17:59;;;;;;;26.13;23.92;;;16.20;68.90;;;;;;5115869;28;20168;-90
2023/10/12 14:20:28;;;;;;;26.52;23.95;;;16.40;70.30;;;;;;5114745;28;20167;-90
2023/10/12 14:22:58;;;;;;;27.58;23.67;;;16.60;69.90;;;;;;5115774;28;20166;-90
2023/10/12 14:25:28;;;;;;;25.15;22.98;;;16.60;69.70;;;;;;5115031;28;20631;-92
2023/10/12 14:28:00;;;;;;;25.85;23.35;;;16.50;70.60;;;;;;5115551;28;20177;-90
2023/10/12 14:30:29;;;;;;;26.30;23.50;;;16.70;69.90;;;;;;5114512;28;20261;-90
2023/10/12 14:33:02;;;;;;;24.80;22.60;;;16.70;68.00;;;;;;5114991;28;20166;-90
2023/10/12 14:35:36;;;;;;;25.58;23.30;;;16.60;68.90;;;;;;5114920;28;20190;-90
2023/10/12 14:38:06;;;;;;;26.40;23.63;;;16.60;68.80;;;;;;5115836;28;20241;-89
2023/10/12 14:40:32;;;;;;;25.65;23.08;;;16.70;68.90;;;;;;5115802;28;20142;-90
2023/10/12 14:43:11;;;;;;;25.80;23.17;;;16.80;68.80;;;;;;5114347;28;20534;-90
2023/10/12 14:45:44;;;;;;;30.98;26.05;;;16.80;68.60;;;;;;5113907;28;20235;-90
2023/10/12 14:48:11;;;;;;;31.60;25.52;;;16.90;69.70;;;;;;5114341;28;20625;-90
2023/10/12 14:50:47;;;;;;;32.40;24.88;;;16.90;69.10;;;;;;5114148;28;20177;-90
2023/10/12 14:53:16;;;;;;;26.45;23.48;;;17.00;69.90;;;;;;5115570;28;20158;-90
2023/10/12 14:55:48;;;;;;;24.92;22.65;;;17.20;71.10;;;;;;5114003;28;20323;-91
2023/10/12 14:58:16;;;;;;;31.70;25.25;;;17.20;70.80;;;;;;5114106;28;20173;-91
2023/10/12 15:00:44;;;;;;;26.90;24.08;;;17.10;70.90;;;;;;5114042;28;20256;-91
2023/10/12 15:03:10;;;;;;;25.70;23.40;;;17.10;70.90;;;;;;5113935;28;20257;-91
2023/10/12 15:05:38;;;;;;;26.65;24.05;;;17.10;70.80;;;;;;5114013;28;20270;-91